Time;durP1;ratioP1;P1;durP2;ratioP2;P2;SDS_P1;SDS_P2;PMS_P1;PMS_P2;Temp;Humidity;BMP_temperature;BMP_pressure;BME280_temperature;BME280_humidity;BME280_pressure;Samples;Min_cycle;Max_cycle;Signal;HPM_P1;HPM_P2
2022/01/03 00:00:19;;;;;;;6.20;2.37;;;;;;;8.96;100.00;99939.06;4975427;28;20221;-59
2022/01/03 00:02:46;;;;;;;6.97;1.93;;;;;;;9.00;100.00;99921.78;5013413;28;20616;-58
2022/01/03 00:05:12;;;;;;;5.33;1.43;;;;;;;8.95;100.00;99921.19;4990556;28;20640;-59
2022/01/03 00:07:42;;;;;;;6.23;1.97;;;;;;;8.90;100.00;99923.19;4992281;28;20171;-58
2022/01/03 00:10:09;;;;;;;6.77;1.60;;;;;;;8.90;100.00;99924.00;4982251;28;20648;-58
2022/01/03 00:12:35;;;;;;;4.87;1.80;;;;;;;8.87;100.00;99929.28;4991369;28;20175;-59
2022/01/03 00:15:03;;;;;;;5.33;1.90;;;;;;;8.82;100.00;99929.50;4991871;28;20178;-58
2022/01/03 00:17:28;;;;;;;5.43;1.50;;;;;;;8.77;100.00;99928.06;4981180;28;20289;-58
2022/01/03 00:19:54;;;;;;;4.80;1.30;;;;;;;8.86;100.00;99932.75;4992011;28;20258;-59
2022/01/03 00:22:22;;;;;;;5.00;1.40;;;;;;;8.78;100.00;99932.31;4981090;28;20601;-59
2022/01/03 00:25:15;;;;;;;7.50;1.80;;;;;;;8.72;100.00;99926.56;4991409;28;20248;-59
2022/01/03 00:27:49;;;;;;;7.13;1.60;;;;;;;8.81;100.00;99934.72;5007083;28;20175;-59
2022/01/03 00:30:19;;;;;;;7.07;1.63;;;;;;;8.72;100.00;99944.53;4962435;28;20183;-59
2022/01/03 00:32:47;;;;;;;5.67;1.20;;;;;;;8.68;100.00;99937.91;4991400;28;20175;-59
2022/01/03 00:35:15;;;;;;;4.03;1.37;;;;;;;8.67;100.00;99936.25;4990814;28;20186;-58
2022/01/03 00:37:43;;;;;;;5.77;1.53;;;;;;;8.68;100.00;99940.47;4992029;28;20229;-58
2022/01/03 00:40:09;;;;;;;5.77;1.30;;;;;;;8.71;100.00;99945.44;4989878;28;20690;-60
2022/01/03 00:42:35;;;;;;;4.13;1.30;;;;;;;8.62;100.00;99939.91;5017252;28;20162;-59
2022/01/03 00:45:02;;;;;;;4.67;1.70;;;;;;;8.52;100.00;99947.22;4991666;28;20536;-59
2022/01/03 00:47:34;;;;;;;3.60;1.67;;;;;;;8.51;100.00;99954.09;4982476;28;20238;-58
2022/01/03 00:50:11;;;;;;;4.13;1.30;;;;;;;8.51;100.00;99950.72;4972297;28;20196;-59
2022/01/03 00:52:37;;;;;;;4.43;1.30;;;;;;;8.43;100.00;99948.47;4961283;28;20211;-59
2022/01/03 00:55:04;;;;;;;2.23;1.40;;;;;;;8.35;100.00;99955.72;4971989;28;20642;-58
2022/01/03 00:57:48;;;;;;;5.43;1.50;;;;;;;8.43;100.00;99948.47;4972237;28;20191;-58
2022/01/03 01:00:14;;;;;;;6.70;1.60;;;;;;;8.55;100.00;99950.47;4963323;28;20208;-59
2022/01/03 01:02:48;;;;;;;5.60;1.40;;;;;;;8.57;100.00;99952.97;4985580;28;20175;-59
2022/01/03 01:05:14;;;;;;;4.07;1.37;;;;;;;8.56;100.00;99957.25;4972050;28;20594;-59
2022/01/03 01:07:39;;;;;;;4.17;2.10;;;;;;;8.43;100.00;99958.72;4972150;28;20180;-59
2022/01/03 01:10:06;;;;;;;6.10;1.73;;;;;;;8.51;100.00;99958.41;4962351;28;20188;-59
2022/01/03 01:12:32;;;;;;;7.53;1.97;;;;;;;8.45;100.00;99961.22;5015635;28;20180;-58
2022/01/03 01:14:58;;;;;;;4.83;1.20;;;;;;;8.45;100.00;99974.06;5002486;28;20166;-58
2022/01/03 01:17:27;;;;;;;5.33;1.40;;;;;;;8.34;100.00;99966.88;5011133;28;20175;-58
2022/01/03 01:19:55;;;;;;;2.50;1.03;;;;;;;8.30;100.00;99962.75;5010879;28;20290;-58
2022/01/03 01:22:21;;;;;;;5.20;1.40;;;;;;;8.31;100.00;99960.16;5016398;28;20284;-59
2022/01/03 01:24:58;;;;;;;3.27;1.17;;;;;;;8.28;100.00;99969.72;5010639;28;20202;-59
2022/01/03 01:30:08;;;;;;;9.87;2.27;;;;;;;8.22;100.00;99973.38;5001356;28;20190;-58
2022/01/03 01:32:34;;;;;;;5.57;1.53;;;;;;;8.12;100.00;99980.66;5025477;28;20175;-58
2022/01/03 01:35:00;;;;;;;4.87;1.77;;;;;;;8.11;100.00;99991.81;5010542;28;20188;-58
2022/01/03 01:37:26;;;;;;;7.30;1.57;;;;;;;8.21;100.00;99981.97;5010771;28;20171;-58
2022/01/03 01:39:51;;;;;;;5.17;1.47;;;;;;;8.27;100.00;99984.25;5010397;28;20226;-58
2022/01/03 01:42:18;;;;;;;5.40;1.47;;;;;;;8.35;100.00;99978.78;5004491;28;20238;-58
2022/01/03 01:44:50;;;;;;;7.33;1.93;;;;;;;8.31;100.00;99983.22;4995270;28;20207;-59
2022/01/03 01:47:17;;;;;;;9.03;1.80;;;;;;;8.34;100.00;99980.50;4995175;28;20187;-58
2022/01/03 01:49:47;;;;;;;7.90;1.73;;;;;;;8.31;100.00;99984.94;4975432;28;20246;-59
2022/01/03 01:52:19;;;;;;;5.63;1.87;;;;;;;8.28;100.00;99985.91;4980394;28;20238;-59
2022/01/03 01:54:57;;;;;;;9.80;1.93;;;;;;;8.27;100.00;99986.00;4975176;28;20539;-58
2022/01/03 01:57:38;;;;;;;9.67;1.77;;;;;;;8.18;100.00;99985.50;4975483;28;20346;-58
2022/01/03 02:00:14;;;;;;;5.50;1.37;;;;;;;8.15;100.00;99983.09;4967328;28;20235;-58
2022/01/03 02:02:56;;;;;;;6.70;1.63;;;;;;;8.10;100.00;99984.19;4979706;28;20583;-58
2022/01/03 02:05:33;;;;;;;6.00;1.50;;;;;;;8.13;100.00;99990.00;4993839;28;20180;-58
2022/01/03 02:08:40;;;;;;;5.33;1.70;;;;;;;8.20;100.00;99988.84;4994328;28;20198;-58
2022/01/03 02:11:18;;;;;;;6.17;1.40;;;;;;;8.16;100.00;99996.72;4975594;28;20571;-59
2022/01/03 02:13:44;;;;;;;5.47;1.50;;;;;;;8.17;100.00;99994.09;5004822;28;20221;-58
2022/01/03 02:16:11;;;;;;;4.97;1.83;;;;;;;8.15;100.00;99985.66;5005532;28;20682;-57
2022/01/03 02:18:36;;;;;;;6.50;1.37;;;;;;;8.13;100.00;99984.88;5013773;28;20612;-59
2022/01/03 02:21:03;;;;;;;7.53;2.03;;;;;;;8.16;100.00;99996.72;5011085;28;20257;-58
2022/01/03 02:23:28;;;;;;;5.73;1.57;;;;;;;8.16;99.00;100001.84;5021211;28;20179;-57
2022/01/03 02:25:54;;;;;;;7.27;1.67;;;;;;;8.16;99.49;100005.25;5013786;28;20174;-58
2022/01/03 02:28:22;;;;;;;7.40;1.77;;;;;;;8.02;100.00;99999.94;5013625;28;20221;-58
2022/01/03 02:30:48;;;;;;;7.70;1.50;;;;;;;8.00;100.00;100001.72;5009437;28;20257;-58
2022/01/03 02:33:14;;;;;;;4.87;1.50;;;;;;;8.08;100.00;100000.47;5012307;28;20525;-58
2022/01/03 02:35:42;;;;;;;7.80;1.90;;;;;;;8.08;100.00;100008.16;5013430;28;20190;-58
2022/01/03 02:38:08;;;;;;;4.33;1.80;;;;;;;8.11;100.00;100011.47;5013201;28;20703;-58
2022/01/03 02:40:34;;;;;;;6.93;1.80;;;;;;;8.03;100.00;100007.53;5007541;28;20245;-58
2022/01/03 02:42:59;;;;;;;8.27;2.13;;;;;;;7.98;100.00;100008.66;4998417;28;20180;-57
2022/01/03 02:45:26;;;;;;;5.17;1.80;;;;;;;7.89;100.00;100012.47;4973796;28;20168;-58
2022/01/03 02:47:56;;;;;;;5.57;1.70;;;;;;;7.93;100.00;100015.72;4974299;28;20180;-58
2022/01/03 02:50:24;;;;;;;10.07;2.27;;;;;;;7.89;100.00;100017.59;4966990;28;20243;-58
2022/01/03 02:52:50;;;;;;;6.57;1.90;;;;;;;8.01;100.00;100018.75;4986371;28;20255;-58
2022/01/03 02:55:16;;;;;;;9.93;1.77;;;;;;;8.05;100.00;100018.56;4974039;28;20299;-58
2022/01/03 02:57:46;;;;;;;6.30;1.90;;;;;;;8.04;100.00;100018.63;4973404;28;20176;-58
2022/01/03 03:00:20;;;;;;;7.77;1.80;;;;;;;8.00;100.00;100017.09;4969312;28;20202;-58
2022/01/03 03:02:46;;;;;;;8.20;1.90;;;;;;;8.00;100.00;100022.22;4997646;28;20552;-58
2022/01/03 03:05:12;;;;;;;5.67;1.90;;;;;;;8.02;100.00;100023.81;4993055;28;20238;-58
2022/01/03 03:07:39;;;;;;;5.97;1.40;;;;;;;8.12;100.00;100024.22;4993245;28;20559;-58
2022/01/03 03:10:11;;;;;;;5.87;1.73;;;;;;;8.20;100.00;100029.84;4987665;28;20198;-59
2022/01/03 03:12:37;;;;;;;12.13;1.93;;;;;;;8.37;100.00;100025.66;5009829;28;20227;-57
2022/01/03 03:15:05;;;;;;;6.10;1.53;;;;;;;8.40;100.00;100023.78;4985654;28;20488;-58
2022/01/03 03:17:30;;;;;;;9.90;2.30;;;;;;;8.58;100.00;100026.41;5000586;28;20185;-57
2022/01/03 03:19:57;;;;;;;3.83;1.77;;;;;;;8.52;99.63;100031.81;4992224;28;20203;-57
2022/01/03 03:22:24;;;;;;;8.20;1.90;;;;;;;8.66;99.50;100034.56;4991149;28;20226;-58
2022/01/03 03:24:50;;;;;;;7.07;1.90;;;;;;;8.68;100.00;100030.22;4992332;28;20830;-57
2022/01/03 03:27:16;;;;;;;4.97;1.57;;;;;;;8.66;99.61;100033.75;4984272;28;20183;-58
2022/01/03 03:29:47;;;;;;;6.67;1.60;;;;;;;8.68;98.90;100029.38;4993159;28;20195;-58
2022/01/03 03:32:12;;;;;;;6.00;1.50;;;;;;;8.70;98.91;100035.25;5015340;28;20706;-58
2022/01/03 03:34:38;;;;;;;4.93;1.63;;;;;;;8.68;99.21;100045.59;5011845;28;20206;-57
2022/01/03 03:37:04;;;;;;;4.17;1.20;;;;;;;8.74;98.12;100034.19;5012035;28;20229;-57
2022/01/03 03:39:31;;;;;;;4.67;1.50;;;;;;;8.72;100.00;100046.28;5011970;28;20301;-57
2022/01/03 03:41:57;;;;;;;6.73;1.60;;;;;;;8.54;100.00;100047.97;5016788;28;20307;-57
2022/01/03 03:44:22;;;;;;;9.63;1.90;;;;;;;8.42;100.00;100066.47;4996836;28;20974;-57
2022/01/03 03:46:47;;;;;;;7.03;1.33;;;;;;;8.18;100.00;100053.88;5001507;28;20185;-57
2022/01/03 03:49:12;;;;;;;5.50;1.33;;;;;;;8.10;100.00;100038.00;5015664;28;20206;-58
2022/01/03 03:51:38;;;;;;;2.83;1.00;;;;;;;7.96;100.00;100043.75;5013973;28;20233;-58
2022/01/03 03:54:04;;;;;;;3.93;1.00;;;;;;;7.92;100.00;100053.28;5000857;28;20309;-58
2022/01/03 03:56:30;;;;;;;2.67;0.80;;;;;;;7.94;100.00;100058.34;5004219;28;20609;-58
2022/01/03 03:58:55;;;;;;;1.73;0.93;;;;;;;7.89;100.00;100061.13;5011817;28;20213;-58
2022/01/03 04:01:21;;;;;;;3.30;1.13;;;;;;;7.83;100.00;100057.09;5000164;28;20283;-58
2022/01/03 04:03:46;;;;;;;4.37;1.00;;;;;;;7.73;100.00;100061.78;5016258;28;20945;-58
2022/01/03 04:06:11;;;;;;;2.30;0.90;;;;;;;7.71;100.00;100055.06;5011524;28;20205;-58
2022/01/03 04:08:37;;;;;;;2.77;0.70;;;;;;;7.72;100.00;100057.56;5010921;28;20230;-58
2022/01/03 04:11:02;;;;;;;4.47;1.00;;;;;;;7.83;100.00;100059.66;5008618;28;20305;-58
2022/01/03 04:13:27;;;;;;;4.17;1.00;;;;;;;7.81;100.00;100055.50;5018900;28;20253;-57
2022/01/03 04:15:52;;;;;;;1.50;0.87;;;;;;;7.87;100.00;100050.94;5007775;28;20230;-58
2022/01/03 04:18:18;;;;;;;5.07;1.00;;;;;;;7.86;100.00;100051.84;5020014;28;20179;-58
2022/01/03 04:20:43;;;;;;;2.47;1.00;;;;;;;7.89;100.00;100056.81;5019316;28;20245;-58
2022/01/03 04:23:08;;;;;;;8.80;1.60;;;;;;;8.00;100.00;100063.19;5021272;28;20229;-58
2022/01/03 04:25:33;;;;;;;3.97;1.30;;;;;;;7.92;100.00;100053.28;5011084;28;20182;-58
2022/01/03 04:27:59;;;;;;;1.80;0.90;;;;;;;7.94;100.00;100063.47;5011238;28;20658;-58
2022/01/03 04:30:24;;;;;;;1.53;1.20;;;;;;;7.90;100.00;100063.63;4983213;28;20281;-58
2022/01/03 04:32:49;;;;;;;3.30;0.87;;;;;;;7.78;100.00;100056.47;5024161;28;20615;-58
2022/01/03 04:35:15;;;;;;;8.50;1.33;;;;;;;7.72;100.00;100059.31;5010721;28;20174;-59
2022/01/03 04:37:40;;;;;;;2.10;1.20;;;;;;;7.64;100.00;100062.19;5011146;28;20170;-58
2022/01/03 04:40:06;;;;;;;4.57;1.30;;;;;;;7.65;100.00;100057.91;5001264;28;20526;-59
2022/01/03 04:42:32;;;;;;;3.60;1.03;;;;;;;7.51;100.00;100064.44;5025599;28;20185;-59
2022/01/03 04:44:57;;;;;;;3.17;1.07;;;;;;;7.49;100.00;100052.59;5010758;28;20178;-59
2022/01/03 04:47:22;;;;;;;3.83;1.00;;;;;;;7.48;100.00;100049.22;5010881;28;20691;-58
2022/01/03 04:49:48;;;;;;;4.37;1.17;;;;;;;7.41;100.00;100046.06;5025793;28;20208;-58
2022/01/03 04:52:13;;;;;;;2.33;1.00;;;;;;;7.43;100.00;100049.41;5016263;28;20323;-58
2022/01/03 04:54:38;;;;;;;3.93;0.87;;;;;;;7.46;100.00;100045.06;5010682;28;20478;-58
2022/01/03 04:57:04;;;;;;;3.40;1.13;;;;;;;7.51;100.00;100053.38;5010903;28;20256;-58
2022/01/03 04:59:29;;;;;;;2.83;0.90;;;;;;;7.44;100.00;100050.22;5009483;28;20284;-58
2022/01/03 05:01:55;;;;;;;1.43;0.70;;;;;;;7.56;100.00;100059.94;5015159;28;20275;-59
2022/01/03 05:04:20;;;;;;;2.13;1.00;;;;;;;7.48;100.00;100051.78;5011350;28;20537;-58
2022/01/03 05:06:45;;;;;;;2.50;0.80;;;;;;;7.63;100.00;100057.13;5010999;28;20233;-58
2022/01/03 05:09:11;;;;;;;1.97;1.00;;;;;;;7.77;100.00;100052.25;5011120;28;20194;-58
2022/01/03 05:11:36;;;;;;;2.00;0.90;;;;;;;7.90;100.00;100049.97;5012657;28;20221;-59
2022/01/03 05:14:01;;;;;;;4.60;1.27;;;;;;;7.98;100.00;100060.72;5014027;28;20695;-58
2022/01/03 05:16:27;;;;;;;4.90;1.20;;;;;;;8.04;100.00;100050.19;5010610;28;20193;-58
2022/01/03 05:18:52;;;;;;;4.67;1.00;;;;;;;7.97;100.00;100050.53;5010812;28;20281;-58
2022/01/03 05:21:17;;;;;;;6.93;1.37;;;;;;;7.90;100.00;100045.69;5012483;28;20233;-58
2022/01/03 05:23:42;;;;;;;2.63;1.30;;;;;;;8.03;100.00;100055.38;5020100;28;20214;-58
2022/01/03 05:26:08;;;;;;;4.73;1.70;;;;;;;8.01;100.00;100045.22;5014634;28;20177;-58
2022/01/03 05:28:34;;;;;;;5.77;1.60;;;;;;;7.97;100.00;100064.16;5014297;28;20202;-58
2022/01/03 05:30:59;;;;;;;3.20;1.40;;;;;;;7.98;100.00;100067.56;5011578;28;20338;-58
2022/01/03 05:33:24;;;;;;;5.00;1.50;;;;;;;7.95;100.00;100062.56;5022231;28;20178;-57
2022/01/03 05:35:50;;;;;;;2.43;1.17;;;;;;;8.01;100.00;100060.59;5014039;28;20190;-58
2022/01/03 05:38:15;;;;;;;4.13;1.53;;;;;;;7.96;100.00;100061.69;5014038;28;20186;-57
2022/01/03 05:40:40;;;;;;;5.57;1.73;;;;;;;8.06;100.00;100066.34;5009111;28;20765;-57
2022/01/03 05:43:06;;;;;;;4.33;1.40;;;;;;;8.13;100.00;100059.19;5004277;28;20519;-58
2022/01/03 05:45:31;;;;;;;16.23;2.30;;;;;;;7.92;100.00;100063.53;4994176;28;20207;-57
2022/01/03 05:47:56;;;;;;;5.60;1.70;;;;;;;8.10;100.00;100049.09;5007845;28;20198;-57
2022/01/03 05:50:22;;;;;;;6.47;1.40;;;;;;;8.00;100.00;100058.94;5006457;28;20238;-58
2022/01/03 05:52:47;;;;;;;5.17;1.50;;;;;;;7.94;100.00;100063.47;5026917;28;20182;-58
2022/01/03 05:55:13;;;;;;;8.23;1.80;;;;;;;7.90;100.00;100065.34;5013501;28;20668;-57
2022/01/03 05:57:42;;;;;;;3.90;1.77;;;;;;;7.79;100.00;100073.50;5013971;28;20181;-58
2022/01/03 06:00:12;;;;;;;5.57;1.40;;;;;;;7.84;100.00;100055.34;5004016;28;20194;-57
2022/01/03 06:02:41;;;;;;;5.70;2.03;;;;;;;7.81;100.00;100055.50;5030252;28;20199;-58
2022/01/03 06:05:10;;;;;;;6.83;1.60;;;;;;;7.69;100.00;100056.84;5021288;28;20186;-58
2022/01/03 06:07:35;;;;;;;4.97;1.33;;;;;;;7.69;100.00;100061.97;5025287;28;20170;-58
2022/01/03 06:10:02;;;;;;;4.73;1.20;;;;;;;7.62;100.00;100045.25;5020423;28;20211;-58
2022/01/03 06:12:27;;;;;;;9.67;1.93;;;;;;;7.56;100.00;100049.69;5005107;28;20253;-58
2022/01/03 06:14:54;;;;;;;2.20;1.27;;;;;;;7.45;100.00;100035.72;5024926;28;20631;-58
2022/01/03 06:17:20;;;;;;;3.83;1.20;;;;;;;7.57;100.00;100042.88;5033315;28;20174;-58
2022/01/03 06:19:45;;;;;;;4.60;1.40;;;;;;;7.61;100.00;100046.94;5031925;28;20679;-59
2022/01/03 06:22:12;;;;;;;3.00;1.00;;;;;;;7.67;100.00;100046.69;5038683;28;20225;-59
2022/01/03 06:24:39;;;;;;;2.10;1.17;;;;;;;7.63;100.00;100042.59;5033140;28;20166;-58
2022/01/03 06:27:05;;;;;;;4.67;1.40;;;;;;;7.67;100.00;100048.44;5033319;28;20174;-59
2022/01/03 06:29:31;;;;;;;4.77;1.10;;;;;;;7.56;100.00;100044.59;5031839;28;20198;-58
2022/01/03 06:31:57;;;;;;;4.90;1.07;;;;;;;7.49;100.00;100044.91;5036530;28;20241;-58
2022/01/03 06:34:23;;;;;;;4.93;1.57;;;;;;;7.53;100.00;100031.94;5033227;28;20277;-58
2022/01/03 06:36:49;;;;;;;4.53;1.27;;;;;;;7.50;100.00;100032.03;5033066;28;20801;-59
2022/01/03 06:39:15;;;;;;;4.43;1.27;;;;;;;7.47;100.00;100031.34;5032681;28;20233;-59
2022/01/03 06:41:41;;;;;;;3.17;1.27;;;;;;;7.48;100.00;100033.84;5027658;28;20249;-58
2022/01/03 06:44:06;;;;;;;2.00;0.80;;;;;;;7.43;100.00;100034.06;4998927;28;20176;-58
2022/01/03 06:46:32;;;;;;;5.53;1.20;;;;;;;7.37;100.00;100031.75;4995087;28;20191;-58
2022/01/03 06:49:00;;;;;;;6.60;1.20;;;;;;;7.33;100.00;100034.50;5013190;28;20285;-58
2022/01/03 06:51:28;;;;;;;5.30;1.70;;;;;;;7.43;100.00;100038.34;5013710;28;20225;-58
2022/01/03 06:53:54;;;;;;;5.87;1.40;;;;;;;7.49;100.00;100039.81;5016877;28;20273;-58
2022/01/03 06:56:19;;;;;;;8.97;1.57;;;;;;;7.45;100.00;100043.41;5012870;28;20270;-58
2022/01/03 06:58:46;;;;;;;5.27;1.90;;;;;;;7.56;100.00;100041.22;5012863;28;20285;-57
2022/01/03 07:01:12;;;;;;;4.00;1.50;;;;;;;7.65;100.00;100029.72;5011786;28;20245;-57
2022/01/03 07:03:37;;;;;;;8.23;2.10;;;;;;;7.72;100.00;100024.28;5018983;28;20548;-58
2022/01/03 07:06:02;;;;;;;5.87;1.80;;;;;;;7.74;100.00;100017.38;5012871;28;20631;-58
2022/01/03 07:08:27;;;;;;;5.87;1.47;;;;;;;7.77;100.00;100007.91;5027748;28;20178;-58
2022/01/03 07:10:53;;;;;;;5.97;1.93;;;;;;;7.73;100.00;100013.13;5008733;28;20226;-58
2022/01/03 07:13:18;;;;;;;5.60;2.03;;;;;;;7.66;100.00;100001.50;5021166;28;20179;-58
2022/01/03 07:21:12;;;;;;;8.90;1.70;;;;;;;7.56;100.00;100015.59;5011545;28;20252;-57
2022/01/03 07:23:41;;;;;;;10.57;2.10;;;;;;;7.48;100.00;100002.28;5018606;28;20205;-59
2022/01/03 07:26:07;;;;;;;6.77;2.13;;;;;;;7.50;100.00;100001.34;5012492;28;20178;-62
2022/01/03 07:28:33;;;;;;;9.33;2.73;;;;;;;7.56;100.00;100018.16;5008866;28;20203;-61
2022/01/03 07:30:58;;;;;;;10.47;2.00;;;;;;;7.64;100.00;100010.16;5015499;28;20255;-59
2022/01/03 07:33:24;;;;;;;9.73;2.10;;;;;;;7.70;100.00;100015.00;5026591;28;20190;-59
2022/01/03 07:35:49;;;;;;;10.83;2.37;;;;;;;7.73;100.00;100014.88;5016615;28;20186;-58
2022/01/03 07:38:15;;;;;;;7.20;2.10;;;;;;;7.64;100.00;100016.13;5023458;28;20170;-60
2022/01/03 07:40:40;;;;;;;14.80;2.90;;;;;;;7.88;100.00;100015.94;5025190;28;20240;-58
2022/01/03 07:43:06;;;;;;;18.27;2.90;;;;;;;7.84;100.00;100012.66;5026472;28;20189;-58
2022/01/03 07:45:31;;;;;;;14.50;2.50;;;;;;;7.94;100.00;100014.81;5022219;28;20182;-58
2022/01/03 07:47:56;;;;;;;14.07;3.07;;;;;;;7.98;100.00;100013.78;5016030;28;20232;-58
2022/01/03 07:50:22;;;;;;;12.83;2.70;;;;;;;8.08;100.00;100015.03;5014886;28;20229;-58
2022/01/03 07:52:47;;;;;;;9.47;2.47;;;;;;;7.96;100.00;100026.63;5033000;28;20189;-58
2022/01/03 07:55:16;;;;;;;11.93;3.50;;;;;;;8.02;100.00;100031.47;5018588;28;20174;-58
2022/01/03 07:57:43;;;;;;;11.67;3.33;;;;;;;7.98;100.00;100031.72;5016879;28;20289;-58
2022/01/03 08:00:11;;;;;;;13.90;2.97;;;;;;;8.16;100.00;100027.47;5002585;28;20202;-59
2022/01/03 08:02:41;;;;;;;18.73;3.13;;;;;;;8.07;100.00;100019.31;5045916;28;20280;-58
2022/01/03 08:05:08;;;;;;;13.13;3.13;;;;;;;8.17;100.00;100022.28;5031481;28;20532;-59
2022/01/03 08:07:34;;;;;;;14.40;3.00;;;;;;;8.19;100.00;100022.22;5031641;28;20189;-59
2022/01/03 08:10:00;;;;;;;10.07;2.70;;;;;;;8.30;100.00;100026.84;5031477;28;20190;-59
2022/01/03 08:12:25;;;;;;;12.10;3.00;;;;;;;8.26;100.00;100015.06;5036949;28;20581;-59
2022/01/03 08:14:51;;;;;;;16.07;2.70;;;;;;;8.38;100.00;100023.03;5031353;28;20174;-59
2022/01/03 08:17:16;;;;;;;9.80;2.73;;;;;;;8.46;100.00;100012.44;5036632;28;20279;-59
2022/01/03 08:19:41;;;;;;;7.13;2.53;;;;;;;8.59;100.00;100006.75;5031374;28;20206;-60
2022/01/03 08:22:10;;;;;;;13.77;3.43;;;;;;;8.60;100.00;100016.91;5036792;28;20637;-59
2022/01/03 08:24:35;;;;;;;9.90;2.50;;;;;;;8.45;100.00;100017.63;5022735;28;20208;-59
2022/01/03 08:27:00;;;;;;;12.10;2.67;;;;;;;8.55;100.00;100014.56;5025543;28;20659;-59
2022/01/03 08:29:26;;;;;;;11.93;2.57;;;;;;;8.63;100.00;100018.50;5013996;28;20256;-58
2022/01/03 08:31:51;;;;;;;12.53;2.70;;;;;;;8.65;100.00;100025.22;4995586;28;20267;-58
2022/01/03 08:34:17;;;;;;;13.77;2.63;;;;;;;8.66;100.00;100024.31;5010030;28;20679;-58
2022/01/03 08:36:43;;;;;;;9.87;2.53;;;;;;;8.74;100.00;100018.81;5011711;28;20262;-58
2022/01/03 08:39:09;;;;;;;10.20;2.40;;;;;;;8.80;100.00;100022.84;5011538;28;20212;-59
2022/01/03 08:41:35;;;;;;;9.23;2.70;;;;;;;8.70;100.00;100013.00;4996857;28;20365;-59
2022/01/03 08:44:00;;;;;;;9.70;2.10;;;;;;;8.77;100.00;100015.28;4990120;28;20174;-64
2022/01/03 08:46:26;;;;;;;13.43;3.03;;;;;;;8.84;100.00;100029.47;5012549;28;20182;-59
2022/01/03 08:48:53;;;;;;;7.83;1.87;;;;;;;8.81;100.00;100021.94;5014154;28;20197;-58
2022/01/03 08:51:18;;;;;;;8.53;2.20;;;;;;;8.87;100.00;100019.06;5019316;28;20232;-59
2022/01/03 08:53:43;;;;;;;16.73;2.97;;;;;;;8.81;100.00;100017.63;5025845;28;20174;-59
2022/01/03 08:56:12;;;;;;;14.40;2.70;;;;;;;8.96;100.00;100018.59;5021105;28;20182;-59
2022/01/03 08:58:37;;;;;;;8.47;2.33;;;;;;;8.93;100.00;100016.22;5023213;28;20201;-59
2022/01/03 09:01:03;;;;;;;8.27;2.30;;;;;;;9.09;100.00;100020.56;5028806;28;20236;-58
2022/01/03 09:03:28;;;;;;;10.30;2.53;;;;;;;9.16;100.00;100017.59;5029680;28;20244;-57
2022/01/03 09:05:54;;;;;;;9.80;2.37;;;;;;;9.10;100.00;100011.97;5031065;28;20231;-58
2022/01/03 09:08:22;;;;;;;9.43;2.47;;;;;;;9.16;100.00;100014.22;5029650;28;20623;-58
2022/01/03 09:10:48;;;;;;;15.13;3.30;;;;;;;9.00;100.00;100014.97;5006647;28;20650;-59
2022/01/03 09:13:13;;;;;;;8.77;2.43;;;;;;;8.95;100.00;100011.00;5020885;28;20179;-58
2022/01/03 09:15:44;;;;;;;8.67;2.40;;;;;;;8.90;100.00;100018.09;5009753;28;20183;-58
2022/01/03 09:18:10;;;;;;;13.17;3.13;;;;;;;8.95;100.00;100013.56;5010995;28;20167;-58
2022/01/03 09:20:35;;;;;;;11.70;2.20;;;;;;;8.99;100.00;100013.34;5004845;28;20419;-58
2022/01/03 09:23:08;;;;;;;8.77;2.20;;;;;;;9.03;100.00;100006.31;5022218;28;20655;-58
2022/01/03 09:30:47;;;;;;;8.37;2.13;;;;;;;8.91;100.00;100025.69;5022641;28;20274;-58
2022/01/03 09:33:13;;;;;;;8.87;2.50;;;;;;;8.91;100.00;100012.06;5028901;28;20222;-58
2022/01/03 09:35:41;;;;;;;7.10;2.70;;;;;;;8.96;100.00;100015.22;5022199;28;20181;-58
2022/01/03 09:38:06;;;;;;;10.90;2.67;;;;;;;8.90;100.00;100005.25;5030296;28;20651;-58
2022/01/03 09:40:32;;;;;;;8.00;2.57;;;;;;;8.89;100.00;100014.69;5024022;28;20324;-59
2022/01/03 09:43:00;;;;;;;9.93;2.63;;;;;;;9.00;100.00;100014.97;5021348;28;20183;-58
2022/01/03 09:45:28;;;;;;;8.77;3.03;;;;;;;9.11;100.00;100011.06;5018944;28;20189;-57
2022/01/03 09:47:55;;;;;;;13.70;2.90;;;;;;;9.07;100.00;100012.94;5008997;28;20187;-58
2022/01/03 09:50:22;;;;;;;9.53;2.90;;;;;;;8.93;100.00;100008.50;5003539;28;20595;-58
2022/01/03 09:52:51;;;;;;;13.27;2.90;;;;;;;9.08;100.00;99999.22;5017322;28;20543;-58
2022/01/03 09:55:19;;;;;;;11.17;2.40;;;;;;;9.20;100.00;100001.16;5015613;28;20205;-58
2022/01/03 09:57:45;;;;;;;11.00;2.60;;;;;;;9.29;100.00;100002.44;5014296;28;20190;-54
2022/01/03 10:00:13;;;;;;;9.37;2.13;;;;;;;9.33;100.00;99995.41;5010444;28;20690;-55
2022/01/03 10:02:38;;;;;;;6.10;2.23;;;;;;;9.51;100.00;99998.75;5021609;28;20197;-54
2022/01/03 10:05:05;;;;;;;8.87;2.63;;;;;;;9.64;100.00;99993.84;5010125;28;20730;-58
2022/01/03 10:07:31;;;;;;;10.00;2.40;;;;;;;9.59;100.00;99995.78;5012875;28;20228;-59
2022/01/03 10:09:57;;;;;;;13.00;2.83;;;;;;;9.66;100.00;99997.13;5021832;28;20198;-58
2022/01/03 10:12:22;;;;;;;10.27;3.00;;;;;;;9.73;100.00;100007.94;5021992;28;20229;-58
2022/01/03 10:14:48;;;;;;;13.83;3.33;;;;;;;9.77;100.00;100001.72;5013762;28;20188;-58
2022/01/03 10:17:13;;;;;;;12.83;3.07;;;;;;;9.69;100.00;99990.09;5013741;28;20564;-57
2022/01/03 10:19:58;;;;;;;13.43;3.07;;;;;;;9.49;100.00;99990.31;5017852;28;20274;-57
2022/01/03 10:22:29;;;;;;;8.97;2.70;;;;;;;9.67;100.00;99984.22;5021751;28;20218;-58
2022/01/03 10:24:56;;;;;;;10.47;3.57;;;;;;;9.77;100.00;99978.59;5012411;28;20178;-58
2022/01/03 10:27:23;;;;;;;14.20;2.90;;;;;;;9.74;100.00;99981.34;5016688;28;20187;-58
2022/01/03 10:29:58;;;;;;;13.10;2.87;;;;;;;9.77;100.00;99974.28;5016160;28;20205;-58
2022/01/03 10:32:30;;;;;;;17.30;3.30;;;;;;;9.87;100.00;99968.66;5019982;28;20222;-58
2022/01/03 10:35:13;;;;;;;10.90;2.70;;;;;;;9.86;100.00;99975.56;5016675;28;20190;-57
2022/01/03 10:37:41;;;;;;;13.53;3.30;;;;;;;9.86;100.00;99970.41;5026479;28;20265;-58
2022/01/03 10:40:31;;;;;;;8.67;3.00;;;;;;;9.76;100.00;99964.09;5003607;28;20207;-59
2022/01/03 10:42:58;;;;;;;11.10;3.20;;;;;;;9.85;100.00;99959.28;5025373;28;20253;-59
2022/01/03 10:45:32;;;;;;;10.93;2.97;;;;;;;9.98;100.00;99949.16;5033064;28;20232;-58
2022/01/03 10:47:59;;;;;;;21.00;4.00;;;;;;;9.81;100.00;99944.13;5019129;28;20190;-57
2022/01/03 10:50:25;;;;;;;11.67;3.40;;;;;;;9.76;100.00;99940.97;5014669;28;20236;-57
2022/01/03 10:52:51;;;;;;;11.97;3.07;;;;;;;9.78;100.00;99934.84;5032175;28;20209;-57
2022/01/03 10:55:23;;;;;;;12.70;2.97;;;;;;;9.78;100.00;99934.84;5020829;28;20560;-58
2022/01/03 10:57:56;;;;;;;12.17;3.43;;;;;;;9.60;100.00;99928.97;5013120;28;20174;-58
2022/01/03 11:00:24;;;;;;;10.93;2.77;;;;;;;9.64;100.00;99933.00;5005401;28;20302;-57
2022/01/03 11:03:18;;;;;;;13.73;2.93;;;;;;;9.54;100.00;99926.72;5025311;28;20266;-57
2022/01/03 11:05:52;;;;;;;11.97;3.10;;;;;;;9.76;100.00;99920.41;5015606;28;20178;-57
2022/01/03 11:11:04;;;;;;;18.67;3.30;;;;;;;9.95;100.00;99917.69;5011914;28;20249;-58
2022/01/03 11:13:32;;;;;;;16.20;3.67;;;;;;;10.21;100.00;99911.09;5022910;28;20656;-58
2022/01/03 11:16:03;;;;;;;16.60;3.60;;;;;;;10.13;100.00;99903.81;5018457;28;20182;-57
2022/01/03 11:18:33;;;;;;;18.17;4.33;;;;;;;10.22;100.00;99899.91;5013371;28;20174;-57
2022/01/03 11:21:16;;;;;;;16.87;4.43;;;;;;;10.11;100.00;99897.09;5015316;28;20230;-57
2022/01/03 11:23:48;;;;;;;12.07;2.77;;;;;;;10.30;99.56;99895.16;5031097;28;20197;-58
2022/01/03 11:26:21;;;;;;;17.63;3.60;;;;;;;10.14;99.49;99891.78;5031938;28;20217;-57
2022/01/03 11:28:47;;;;;;;14.77;3.60;;;;;;;10.31;99.53;99893.41;5031790;28;20194;-58
2022/01/03 11:31:15;;;;;;;12.93;2.93;;;;;;;10.29;98.31;99879.81;5030885;28;20333;-58
2022/01/03 11:33:41;;;;;;;12.83;3.23;;;;;;;10.08;99.40;99884.44;5023822;28;20191;-58
2022/01/03 11:36:08;;;;;;;13.03;3.07;;;;;;;10.18;99.52;99882.97;5030458;28;20185;-58
2022/01/03 11:38:35;;;;;;;15.23;3.13;;;;;;;10.28;97.46;99886.72;5024734;28;20215;-58
2022/01/03 11:41:05;;;;;;;10.53;3.23;;;;;;;10.34;96.49;99870.94;5009764;28;20253;-57
2022/01/03 11:43:33;;;;;;;17.33;4.40;;;;;;;10.41;96.89;99868.03;5020022;28;20182;-58